Time;durP1;ratioP1;P1;durP2;ratioP2;P2;SDS_P1;SDS_P2;PMS_P1;PMS_P2;Temp;Humidity;BMP_temperature;BMP_pressure;BME280_temperature;BME280_humidity;BME280_pressure;Samples;Min_cycle;Max_cycle;Signal;HPM_P1;HPM_P2
2021/05/10 00:01:59;;;;;;;7.70;4.30;;;19.10;70.40;;;;;;4974188;28;20213;-90
2021/05/10 00:04:25;;;;;;;5.18;3.83;;;19.10;70.50;;;;;;4975178;28;20570;-89
2021/05/10 00:06:50;;;;;;;4.05;3.75;;;19.00;72.10;;;;;;4974043;28;20237;-90
2021/05/10 00:09:16;;;;;;;4.93;3.90;;;19.10;70.80;;;;;;4974997;28;20210;-90
2021/05/10 00:11:42;;;;;;;4.47;3.65;;;19.30;69.70;;;;;;4975332;28;20268;-90
2021/05/10 00:14:07;;;;;;;5.43;3.95;;;19.20;70.50;;;;;;4974270;28;20210;-89
2021/05/10 00:16:33;;;;;;;4.15;3.42;;;19.10;71.10;;;;;;4975220;28;20790;-90
2021/05/10 00:19:00;;;;;;;3.63;3.33;;;19.10;70.30;;;;;;4975893;28;20542;-89
2021/05/10 00:21:26;;;;;;;3.58;3.22;;;19.10;69.30;;;;;;4975978;28;20241;-90
2021/05/10 00:23:52;;;;;;;3.78;3.47;;;19.20;68.20;;;;;;4973783;28;20470;-90
2021/05/10 00:26:17;;;;;;;5.15;3.58;;;19.40;67.90;;;;;;4974851;28;20597;-89
2021/05/10 00:28:43;;;;;;;3.67;3.38;;;19.40;69.30;;;;;;4975778;28;20183;-90
2021/05/10 00:31:09;;;;;;;4.88;3.75;;;19.10;70.80;;;;;;4948166;28;593962;-89
2021/05/10 00:33:34;;;;;;;4.03;3.72;;;19.10;71.00;;;;;;4975548;28;20213;-90
2021/05/10 00:36:00;;;;;;;4.35;3.70;;;18.90;70.50;;;;;;4958821;28;20261;-89
2021/05/10 00:38:26;;;;;;;4.35;3.47;;;18.90;70.50;;;;;;4955450;29;20197;-90
2021/05/10 00:40:51;;;;;;;4.35;3.75;;;18.80;70.80;;;;;;4956524;29;20179;-90
2021/05/10 00:43:17;;;;;;;4.20;3.72;;;18.90;70.00;;;;;;4955567;28;20207;-90
2021/05/10 00:45:43;;;;;;;4.15;3.72;;;19.10;68.80;;;;;;4956548;29;20275;-91
2021/05/10 00:48:08;;;;;;;4.10;3.80;;;19.20;67.30;;;;;;4956528;29;20179;-90
2021/05/10 00:50:34;;;;;;;4.45;4.00;;;19.30;66.70;;;;;;4956308;29;20188;-89
2021/05/10 00:53:00;;;;;;;5.03;3.78;;;19.40;66.40;;;;;;4954747;29;20277;-89
2021/05/10 00:55:26;;;;;;;3.95;3.65;;;19.40;68.40;;;;;;4982169;28;20294;-88
2021/05/10 00:58:01;;;;;;;3.70;3.42;;;19.20;68.70;;;;;;4976608;28;20190;-89
2021/05/10 01:00:32;;;;;;;4.32;3.63;;;19.20;69.70;;;;;;4975215;28;20171;-91
2021/05/10 01:02:58;;;;;;;4.20;3.80;;;19.10;69.50;;;;;;4975259;28;20201;-89
2021/05/10 01:05:24;;;;;;;4.90;3.80;;;19.00;69.80;;;;;;4974669;28;20238;-89
2021/05/10 01:07:50;;;;;;;4.72;4.28;;;19.00;67.90;;;;;;4976035;28;20194;-89
2021/05/10 01:10:18;;;;;;;4.15;3.75;;;19.10;67.80;;;;;;4976236;28;20175;-88
2021/05/10 01:12:44;;;;;;;4.25;3.80;;;19.10;66.30;;;;;;4976249;28;20326;-89
2021/05/10 01:15:13;;;;;;;4.25;3.55;;;19.20;66.30;;;;;;4976057;28;20211;-89
2021/05/10 01:17:39;;;;;;;4.00;3.70;;;19.20;66.40;;;;;;4974710;28;20186;-89
2021/05/10 01:20:11;;;;;;;5.70;3.55;;;19.10;67.20;;;;;;4975800;28;20683;-88
2021/05/10 01:22:42;;;;;;;4.32;3.30;;;19.10;66.80;;;;;;4965365;28;20201;-89
2021/05/10 01:25:14;;;;;;;5.38;3.40;;;19.10;67.10;;;;;;4975167;28;20676;-89
2021/05/10 01:27:41;;;;;;;4.00;3.58;;;19.10;68.70;;;;;;4984199;28;20167;-90
2021/05/10 01:30:10;;;;;;;3.97;3.58;;;18.90;69.60;;;;;;4976450;28;20187;-88
2021/05/10 01:32:36;;;;;;;3.97;3.65;;;18.80;70.20;;;;;;4957218;28;20207;-89
2021/05/10 01:35:07;;;;;;;5.00;4.50;;;18.70;71.00;;;;;;4956209;29;20218;-89
2021/05/10 01:37:33;;;;;;;4.13;3.72;;;18.60;71.50;;;;;;4954877;29;20630;-88
2021/05/10 01:39:59;;;;;;;5.93;3.55;;;18.50;71.40;;;;;;4956216;28;20215;-89
2021/05/10 01:42:25;;;;;;;4.20;3.90;;;18.60;70.20;;;;;;4985866;28;20684;-89
2021/05/10 01:44:50;;;;;;;4.80;3.85;;;18.60;70.40;;;;;;4974243;28;20705;-90
2021/05/10 01:47:16;;;;;;;3.90;3.60;;;18.60;70.70;;;;;;4975200;28;20183;-89
2021/05/10 01:49:46;;;;;;;3.45;3.15;;;18.60;70.90;;;;;;4975000;28;20182;-88
2021/05/10 01:52:14;;;;;;;3.95;3.65;;;18.60;70.70;;;;;;4975236;28;20610;-88
2021/05/10 01:54:40;;;;;;;4.50;3.60;;;18.60;71.20;;;;;;4973803;28;20225;-88
2021/05/10 01:57:09;;;;;;;4.50;3.72;;;18.60;70.60;;;;;;4958086;28;20209;-88
2021/05/10 01:59:34;;;;;;;6.70;3.50;;;18.60;71.00;;;;;;4974312;28;20689;-91
2021/05/10 02:02:00;;;;;;;3.95;3.47;;;18.60;69.90;;;;;;4974963;28;20198;-88
2021/05/10 02:04:25;;;;;;;4.40;3.40;;;18.60;69.50;;;;;;4974058;28;20221;-89
2021/05/10 02:07:00;;;;;;;3.95;3.60;;;18.70;69.70;;;;;;4975225;28;20797;-88
2021/05/10 02:09:26;;;;;;;4.20;3.60;;;18.60;70.30;;;;;;4973660;28;20234;-89
2021/05/10 02:11:51;;;;;;;3.80;3.50;;;18.50;71.00;;;;;;4974877;28;20195;-88
2021/05/10 02:14:17;;;;;;;5.50;4.18;;;18.20;72.20;;;;;;4974958;28;20560;-89
2021/05/10 02:16:42;;;;;;;3.90;3.58;;;18.20;72.80;;;;;;4973477;28;20191;-89
2021/05/10 02:19:08;;;;;;;3.90;3.60;;;18.00;73.60;;;;;;4975001;28;20279;-88
2021/05/10 02:21:34;;;;;;;4.35;3.58;;;18.00;74.20;;;;;;4967923;28;20595;-89
2021/05/10 02:24:00;;;;;;;4.07;3.60;;;18.00;74.40;;;;;;4974590;28;20304;-89
2021/05/10 02:26:25;;;;;;;3.50;3.20;;;17.90;74.20;;;;;;4973360;28;20225;-88
2021/05/10 02:28:51;;;;;;;4.75;3.88;;;17.90;74.40;;;;;;4973856;28;20195;-88
2021/05/10 02:31:17;;;;;;;6.22;3.83;;;17.90;75.50;;;;;;4973995;28;20190;-88
2021/05/10 02:33:42;;;;;;;4.68;3.50;;;17.80;76.30;;;;;;4975358;28;20207;-89
2021/05/10 02:36:08;;;;;;;3.88;3.53;;;17.90;73.90;;;;;;4974608;28;20198;-88
2021/05/10 02:38:34;;;;;;;4.43;3.60;;;17.90;75.40;;;;;;4957349;28;20285;-89
2021/05/10 02:40:59;;;;;;;3.90;3.60;;;17.90;75.20;;;;;;4973610;28;20190;-88
2021/05/10 02:43:26;;;;;;;4.10;3.70;;;17.80;74.70;;;;;;4973871;28;20234;-89
2021/05/10 02:45:53;;;;;;;3.63;3.30;;;17.60;76.20;;;;;;4974729;28;20204;-88
2021/05/10 02:48:19;;;;;;;4.32;3.65;;;17.50;76.20;;;;;;4975018;28;20659;-88
2021/05/10 02:50:45;;;;;;;4.10;3.57;;;17.70;75.40;;;;;;4974167;28;20185;-88
2021/05/10 02:53:11;;;;;;;3.60;3.30;;;17.70;75.20;;;;;;4975028;28;20207;-89
2021/05/10 02:55:36;;;;;;;4.28;3.55;;;17.50;76.70;;;;;;4974343;28;20188;-88
2021/05/10 02:58:03;;;;;;;3.50;3.20;;;17.50;77.20;;;;;;4973128;28;20184;-90
2021/05/10 03:00:29;;;;;;;3.37;3.17;;;17.50;76.20;;;;;;4974012;28;20247;-88
2021/05/10 03:02:56;;;;;;;4.13;3.73;;;17.60;74.60;;;;;;4973656;28;20192;-88
2021/05/10 03:05:23;;;;;;;3.70;3.40;;;17.70;74.60;;;;;;4973530;28;20290;-89
2021/05/10 03:07:49;;;;;;;3.50;3.20;;;17.80;74.90;;;;;;4977999;28;20660;-89
2021/05/10 03:10:17;;;;;;;3.60;3.30;;;17.90;73.70;;;;;;4976770;28;20215;-90
2021/05/10 03:12:44;;;;;;;5.40;3.08;;;17.80;74.70;;;;;;4977589;28;20177;-88
2021/05/10 03:15:12;;;;;;;3.30;3.03;;;17.80;74.30;;;;;;4978054;28;20222;-88
2021/05/10 03:17:39;;;;;;;3.50;3.27;;;17.50;76.20;;;;;;4977602;28;20284;-88
2021/05/10 03:20:13;;;;;;;4.10;3.70;;;17.40;77.50;;;;;;4978041;28;20187;-88
2021/05/10 03:22:40;;;;;;;3.17;2.90;;;17.30;77.30;;;;;;4977594;28;20180;-88
2021/05/10 03:25:07;;;;;;;5.13;3.60;;;17.30;77.80;;;;;;4977363;28;20206;-87
2021/05/10 03:27:39;;;;;;;3.97;3.63;;;17.20;78.50;;;;;;4977649;28;20179;-87
2021/05/10 03:30:22;;;;;;;5.93;4.23;;;16.90;79.40;;;;;;4978784;28;20337;-89
2021/05/10 03:32:49;;;;;;;4.17;3.77;;;16.80;80.40;;;;;;4966611;28;20668;-87
2021/05/10 03:35:17;;;;;;;4.87;3.93;;;16.80;80.30;;;;;;4963119;28;20535;-89
2021/05/10 03:37:46;;;;;;;4.57;4.17;;;16.70;79.60;;;;;;4962622;28;20185;-88
2021/05/10 03:40:14;;;;;;;5.93;3.57;;;16.80;77.90;;;;;;4960360;28;20628;-88
2021/05/10 03:42:40;;;;;;;6.10;4.60;;;16.90;77.40;;;;;;4958290;28;20274;-88
2021/05/10 03:45:08;;;;;;;5.80;3.97;;;17.00;76.80;;;;;;4972628;28;20225;-88
2021/05/10 03:47:40;;;;;;;4.00;3.70;;;17.00;76.70;;;;;;4977384;28;20178;-87
2021/05/10 03:50:10;;;;;;;4.60;4.20;;;17.10;75.90;;;;;;4977091;28;20186;-88
2021/05/10 03:52:36;;;;;;;4.10;3.67;;;17.30;74.40;;;;;;4962017;28;20270;-88
2021/05/10 03:55:03;;;;;;;4.00;3.60;;;17.40;75.80;;;;;;4962408;28;20248;-88
2021/05/10 03:57:29;;;;;;;4.27;3.93;;;17.50;75.30;;;;;;4976920;28;20185;-88
2021/05/10 03:59:54;;;;;;;4.27;3.87;;;17.50;74.30;;;;;;4976899;28;20301;-88
2021/05/10 04:02:21;;;;;;;4.20;3.70;;;17.50;73.30;;;;;;4975979;28;20647;-87
2021/05/10 04:05:28;;;;;;;4.40;3.90;;;17.50;73.70;;;;;;4976972;28;20206;-87
2021/05/10 04:10:44;;;;;;;4.97;3.60;;;17.40;73.70;;;;;;4977133;28;20178;-87
2021/05/10 04:15:54;;;;;;;4.13;3.73;;;17.40;73.40;;;;;;4958359;29;20228;-89
2021/05/10 04:18:21;;;;;;;4.53;3.17;;;17.40;74.00;;;;;;4956987;28;20183;-87
2021/05/10 04:20:47;;;;;;;6.53;3.53;;;17.50;73.40;;;;;;4957985;28;20176;-88
2021/05/10 04:23:16;;;;;;;4.03;3.13;;;17.50;71.60;;;;;;4957958;29;20231;-88
2021/05/10 04:25:43;;;;;;;4.40;3.67;;;17.50;72.00;;;;;;4964722;28;20259;-88
2021/05/10 04:28:09;;;;;;;3.63;3.33;;;17.60;72.20;;;;;;4969065;28;20186;-88
2021/05/10 04:30:34;;;;;;;4.07;3.33;;;17.70;72.00;;;;;;4971952;28;20186;-88
2021/05/10 04:33:00;;;;;;;3.70;3.30;;;17.60;70.90;;;;;;4976881;28;20713;-88
2021/05/10 04:35:26;;;;;;;3.80;3.50;;;17.70;70.80;;;;;;4974561;28;20197;-88
2021/05/10 04:37:52;;;;;;;4.10;3.23;;;17.70;69.90;;;;;;4974303;28;20237;-88
2021/05/10 04:40:18;;;;;;;5.00;3.17;;;17.70;69.50;;;;;;4974140;28;20180;-87
2021/05/10 04:42:45;;;;;;;6.28;3.75;;;17.80;69.30;;;;;;4975699;28;20172;-88
2021/05/10 04:45:11;;;;;;;4.50;3.60;;;17.80;68.50;;;;;;4974254;28;20205;-88
2021/05/10 04:47:37;;;;;;;3.53;3.22;;;17.90;69.20;;;;;;4975327;28;20178;-89
2021/05/10 04:50:09;;;;;;;3.72;3.42;;;17.90;69.70;;;;;;4975643;28;20191;-88
2021/05/10 04:52:35;;;;;;;3.88;3.58;;;18.00;71.40;;;;;;4975827;28;20221;-88
2021/05/10 04:55:00;;;;;;;5.30;3.20;;;18.00;71.10;;;;;;4976737;28;20830;-88
2021/05/10 04:57:26;;;;;;;3.85;3.40;;;18.00;71.90;;;;;;4963375;28;20597;-90
2021/05/10 04:59:52;;;;;;;5.30;3.50;;;18.00;71.20;;;;;;4976631;28;20234;-91
2021/05/10 05:02:17;;;;;;;4.95;3.53;;;18.10;71.30;;;;;;4975188;28;20251;-87
2021/05/10 05:04:43;;;;;;;4.13;3.78;;;18.10;72.00;;;;;;4983809;28;20245;-89
2021/05/10 05:07:08;;;;;;;3.95;3.55;;;18.10;71.90;;;;;;4969208;28;20275;-89
2021/05/10 05:09:34;;;;;;;4.50;3.15;;;18.00;71.80;;;;;;4967679;28;20211;-90
2021/05/10 05:11:59;;;;;;;3.85;3.47;;;18.10;72.50;;;;;;4975147;28;20214;-91
2021/05/10 05:14:25;;;;;;;3.80;3.50;;;17.90;73.60;;;;;;4975194;28;20657;-88
2021/05/10 05:16:51;;;;;;;4.30;3.90;;;17.90;72.20;;;;;;4965706;28;20203;-88
2021/05/10 05:19:16;;;;;;;4.13;3.70;;;18.00;72.00;;;;;;4954374;29;20222;-88
2021/05/10 05:21:42;;;;;;;4.60;3.72;;;18.10;72.30;;;;;;4955813;28;20195;-89
2021/05/10 05:24:08;;;;;;;3.92;3.53;;;18.10;73.20;;;;;;4971902;28;20712;-88
2021/05/10 05:26:33;;;;;;;4.80;4.25;;;18.20;71.40;;;;;;4988954;28;20190;-88
2021/05/10 05:28:59;;;;;;;5.55;3.75;;;18.30;71.20;;;;;;4955642;28;20678;-87
2021/05/10 05:31:24;;;;;;;3.83;3.47;;;18.30;69.90;;;;;;4963571;28;20183;-89
2021/05/10 05:33:50;;;;;;;5.05;4.15;;;18.40;69.80;;;;;;4973616;28;20272;-89
2021/05/10 05:36:16;;;;;;;5.00;4.50;;;18.40;69.80;;;;;;4958589;28;20226;-88
2021/05/10 05:38:42;;;;;;;19.52;5.63;;;18.50;68.70;;;;;;4958610;28;20273;-88
2021/05/10 05:41:12;;;;;;;5.40;4.90;;;18.50;69.90;;;;;;4974358;28;20186;-90
2021/05/10 05:43:38;;;;;;;7.88;5.63;;;18.60;69.10;;;;;;4968698;28;20208;-88
2021/05/10 05:46:11;;;;;;;7.20;5.22;;;18.60;69.00;;;;;;4958965;28;20721;-88
2021/05/10 05:48:36;;;;;;;5.80;5.20;;;18.70;69.80;;;;;;4972482;28;20180;-89
2021/05/10 05:51:02;;;;;;;5.00;4.53;;;18.80;68.20;;;;;;4975078;28;20239;-88
2021/05/10 05:53:29;;;;;;;6.93;4.88;;;18.80;67.90;;;;;;4991322;28;20199;-87
2021/05/10 05:55:54;;;;;;;5.13;4.50;;;18.80;68.20;;;;;;4974607;28;20230;-88
2021/05/10 05:58:20;;;;;;;4.45;4.05;;;18.90;68.60;;;;;;4974321;28;20186;-88
2021/05/10 06:00:46;;;;;;;4.45;3.92;;;18.90;68.20;;;;;;4973093;28;20193;-88
2021/05/10 06:03:11;;;;;;;6.15;4.20;;;18.80;68.70;;;;;;4972760;28;20211;-88
2021/05/10 06:05:37;;;;;;;4.40;3.97;;;18.80;69.00;;;;;;4972836;28;20681;-89
2021/05/10 06:08:03;;;;;;;6.32;3.90;;;18.90;69.40;;;;;;4973357;28;20198;-88
2021/05/10 06:10:28;;;;;;;4.30;4.00;;;19.00;69.80;;;;;;4974725;28;20190;-89
2021/05/10 06:12:55;;;;;;;7.82;4.40;;;18.90;68.70;;;;;;4974194;28;20170;-88
2021/05/10 06:15:22;;;;;;;4.85;3.92;;;18.90;68.30;;;;;;4974537;28;20183;-90
2021/05/10 06:17:49;;;;;;;4.25;3.85;;;19.00;68.60;;;;;;4973337;28;20191;-89
2021/05/10 06:20:17;;;;;;;3.95;3.55;;;19.00;68.60;;;;;;4953733;28;20193;-88
2021/05/10 06:22:44;;;;;;;4.20;3.47;;;19.10;66.40;;;;;;4954723;28;20186;-89
2021/05/10 06:25:14;;;;;;;12.15;4.13;;;19.00;67.30;;;;;;4955014;28;20215;-89
2021/05/10 06:27:40;;;;;;;7.03;3.80;;;19.00;67.90;;;;;;4956350;28;20232;-89
2021/05/10 06:30:08;;;;;;;6.82;4.03;;;19.00;67.20;;;;;;4971741;28;20191;-88
2021/05/10 06:32:35;;;;;;;4.95;3.60;;;19.00;66.80;;;;;;4970577;28;20208;-89
2021/05/10 06:35:01;;;;;;;6.38;3.65;;;19.00;66.70;;;;;;4977698;28;20206;-89
2021/05/10 06:37:29;;;;;;;4.45;3.92;;;19.20;66.20;;;;;;4977258;28;20293;-88
2021/05/10 06:39:58;;;;;;;4.45;3.35;;;19.20;65.20;;;;;;4974694;28;20641;-88
2021/05/10 06:42:25;;;;;;;5.15;3.75;;;19.30;65.60;;;;;;4984652;28;20197;-89
2021/05/10 06:44:51;;;;;;;6.82;3.50;;;19.40;65.90;;;;;;4986417;28;20206;-88
2021/05/10 06:47:17;;;;;;;7.35;3.72;;;19.40;64.40;;;;;;4990111;28;20183;-88
2021/05/10 06:49:43;;;;;;;5.70;3.97;;;19.50;64.30;;;;;;4977168;28;20187;-88
2021/05/10 06:52:08;;;;;;;5.13;3.88;;;19.50;64.30;;;;;;4987112;28;20190;-89
2021/05/10 06:54:34;;;;;;;4.30;3.90;;;19.30;66.10;;;;;;4985141;28;20205;-89
2021/05/10 06:57:00;;;;;;;4.55;3.72;;;19.30;65.50;;;;;;4976784;28;20722;-88
2021/05/10 06:59:25;;;;;;;4.20;3.30;;;19.30;66.00;;;;;;4983370;28;20195;-89
2021/05/10 07:01:51;;;;;;;7.20;4.25;;;19.50;66.00;;;;;;4982292;28;20649;-89
2021/05/10 07:04:17;;;;;;;4.25;3.40;;;19.50;66.80;;;;;;4981824;28;20221;-88
2021/05/10 07:06:43;;;;;;;4.93;3.55;;;19.50;66.40;;;;;;4982190;28;20652;-88
2021/05/10 07:09:09;;;;;;;5.65;3.85;;;19.50;64.50;;;;;;4981562;28;20200;-89
2021/05/10 07:11:35;;;;;;;6.45;3.95;;;19.40;64.50;;;;;;4978205;28;20351;-88
2021/05/10 07:14:02;;;;;;;3.85;3.35;;;19.50;64.70;;;;;;4981907;28;20226;-90
2021/05/10 07:16:27;;;;;;;4.25;3.58;;;19.50;65.50;;;;;;4990212;28;20221;-91
2021/05/10 07:18:54;;;;;;;5.13;3.25;;;19.50;64.20;;;;;;5001538;28;20190;-90
2021/05/10 07:21:21;;;;;;;4.85;3.63;;;19.50;64.20;;;;;;4989972;28;20213;-88
2021/05/10 07:23:46;;;;;;;4.45;3.72;;;19.50;64.80;;;;;;4978442;28;20213;-88
2021/05/10 07:26:12;;;;;;;4.57;2.92;;;19.70;65.00;;;;;;4985270;28;20209;-89
2021/05/10 07:28:38;;;;;;;5.43;3.17;;;19.80;63.70;;;;;;4979469;28;20280;-88
2021/05/10 07:31:03;;;;;;;3.85;3.13;;;20.00;62.30;;;;;;4985714;28;20182;-89
2021/05/10 07:33:29;;;;;;;5.47;3.38;;;20.00;63.50;;;;;;4987966;28;20218;-89
2021/05/10 07:35:55;;;;;;;5.28;3.63;;;20.00;61.40;;;;;;4981438;28;20534;-88
2021/05/10 07:38:20;;;;;;;4.30;3.13;;;20.10;62.50;;;;;;4985818;28;20197;-88
2021/05/10 07:40:46;;;;;;;5.38;3.55;;;20.10;62.00;;;;;;4994649;28;20197;-88
2021/05/10 07:43:12;;;;;;;6.35;3.00;;;20.00;61.50;;;;;;4981996;28;20211;-90
2021/05/10 07:45:38;;;;;;;4.05;3.00;;;20.10;61.20;;;;;;4982270;28;20234;-89
2021/05/10 07:48:04;;;;;;;5.78;3.60;;;20.10;61.40;;;;;;4984909;28;20206;-90
2021/05/10 07:50:31;;;;;;;7.13;3.20;;;20.10;62.20;;;;;;4996825;28;20193;-90
2021/05/10 07:52:57;;;;;;;4.35;3.63;;;20.30;62.10;;;;;;4984217;28;20221;-90
2021/05/10 07:55:23;;;;;;;3.72;2.72;;;20.20;61.70;;;;;;4980071;28;20658;-89
2021/05/10 07:57:51;;;;;;;3.90;2.80;;;20.00;60.10;;;;;;4990916;28;20207;-89
2021/05/10 08:00:32;;;;;;;3.65;2.60;;;19.80;62.10;;;;;;4991049;28;20190;-89
2021/05/10 08:03:12;;;;;;;3.15;2.85;;;19.70;61.70;;;;;;4979350;28;20332;-90
2021/05/10 08:05:40;;;;;;;4.03;2.80;;;19.60;60.80;;;;;;4987593;28;20233;-91
2021/05/10 08:08:07;;;;;;;2.95;2.75;;;19.70;62.70;;;;;;4987799;28;20195;-90
2021/05/10 08:10:33;;;;;;;6.25;2.85;;;19.60;62.60;;;;;;4984599;28;20209;-90
2021/05/10 08:12:58;;;;;;;6.53;2.17;;;19.60;61.70;;;;;;4988001;28;20196;-89
2021/05/10 08:15:25;;;;;;;2.08;1.95;;;19.50;59.40;;;;;;4984602;28;20190;-88
2021/05/10 08:17:51;;;;;;;3.03;2.28;;;19.60;59.90;;;;;;4983781;28;20205;-89
2021/05/10 08:20:17;;;;;;;2.80;1.90;;;19.60;60.10;;;;;;4982782;28;20190;-89
2021/05/10 08:22:44;;;;;;;3.72;2.38;;;19.60;60.20;;;;;;4983958;28;20218;-88
2021/05/10 08:25:11;;;;;;;2.10;1.80;;;19.80;60.00;;;;;;4983225;28;20221;-87
2021/05/10 08:27:38;;;;;;;2.15;1.83;;;19.80;60.40;;;;;;4987624;28;20209;-88
2021/05/10 08:30:10;;;;;;;3.53;2.25;;;19.80;61.80;;;;;;4991249;28;20187;-88
2021/05/10 08:32:35;;;;;;;3.85;2.22;;;19.80;60.70;;;;;;4983990;28;20728;-88
2021/05/10 08:35:02;;;;;;;3.30;2.10;;;19.70;60.10;;;;;;4991035;28;20268;-89
2021/05/10 08:37:28;;;;;;;3.13;1.80;;;19.80;60.10;;;;;;4998346;28;20201;-88
2021/05/10 08:39:58;;;;;;;1.80;1.70;;;19.60;57.20;;;;;;4984427;28;20185;-88
2021/05/10 08:42:24;;;;;;;1.98;1.85;;;19.50;58.60;;;;;;4981931;28;20205;-88
2021/05/10 08:44:50;;;;;;;4.15;2.33;;;19.50;59.20;;;;;;4967068;28;20213;-87
2021/05/10 08:47:19;;;;;;;4.68;2.08;;;19.50;60.30;;;;;;4984148;28;20183;-89
2021/05/10 08:49:45;;;;;;;3.00;2.05;;;19.70;60.90;;;;;;4979738;28;20190;-88
2021/05/10 08:52:11;;;;;;;3.35;2.35;;;19.70;61.40;;;;;;4985967;28;20186;-88
2021/05/10 08:54:38;;;;;;;3.22;2.03;;;19.80;59.60;;;;;;4989794;28;20430;-88
2021/05/10 08:57:04;;;;;;;3.15;1.70;;;19.90;58.80;;;;;;4982511;28;20672;-89
2021/05/10 08:59:30;;;;;;;2.83;1.60;;;19.90;60.10;;;;;;4992512;28;20196;-90
2021/05/10 09:01:58;;;;;;;2.43;1.60;;;19.80;57.80;;;;;;4982114;28;20631;-89
2021/05/10 09:04:28;;;;;;;1.70;1.60;;;19.80;59.40;;;;;;4981263;28;20216;-90
2021/05/10 09:07:09;;;;;;;1.90;1.80;;;19.90;58.40;;;;;;4978492;28;20209;-90
2021/05/10 09:09:49;;;;;;;1.63;1.52;;;19.90;59.00;;;;;;4981285;28;20190;-89
2021/05/10 09:12:16;;;;;;;2.33;2.10;;;19.80;58.80;;;;;;4977965;28;20274;-90
2021/05/10 09:14:41;;;;;;;5.50;3.30;;;19.70;60.00;;;;;;4978293;28;20677;-89
2021/05/10 09:17:08;;;;;;;3.88;3.00;;;19.80;59.80;;;;;;4978995;28;20201;-89
2021/05/10 09:19:41;;;;;;;2.97;2.67;;;19.90;59.20;;;;;;4978315;28;20197;-88
2021/05/10 09:22:06;;;;;;;3.13;2.58;;;19.90;59.40;;;;;;4980292;28;20271;-89
2021/05/10 09:24:42;;;;;;;2.45;2.00;;;20.10;58.90;;;;;;4980751;28;20693;-90
2021/05/10 09:27:23;;;;;;;1.88;1.70;;;20.20;58.50;;;;;;4984997;28;20219;-90
2021/05/10 09:30:12;;;;;;;2.40;1.50;;;20.20;58.20;;;;;;4975556;28;20309;-89
2021/05/10 09:32:39;;;;;;;1.73;1.63;;;20.40;58.80;;;;;;4974105;28;20212;-89
2021/05/10 09:35:14;;;;;;;1.73;1.60;;;20.40;58.80;;;;;;4972029;28;20296;-89
2021/05/10 09:37:40;;;;;;;1.85;1.60;;;20.50;58.20;;;;;;4972333;28;20210;-89
2021/05/10 09:40:07;;;;;;;1.85;1.42;;;20.50;57.60;;;;;;4974684;28;20197;-89
2021/05/10 09:42:49;;;;;;;1.60;1.50;;;20.30;57.30;;;;;;4979470;28;20221;-89
2021/05/10 09:45:35;;;;;;;1.75;1.63;;;20.50;57.70;;;;;;4972963;28;20238;-89
2021/05/10 09:48:25;;;;;;;1.60;1.50;;;20.60;56.70;;;;;;4974892;28;20191;-89
2021/05/10 09:51:00;;;;;;;2.15;1.80;;;20.50;57.60;;;;;;4977464;28;20188;-89
2021/05/10 09:53:48;;;;;;;1.48;1.42;;;20.70;57.50;;;;;;4977311;28;20336;-89
2021/05/10 09:58:55;;;;;;;1.90;1.65;;;20.60;57.30;;;;;;4976465;28;20294;-90
2021/05/10 10:01:22;;;;;;;1.73;1.63;;;20.60;57.60;;;;;;4980852;28;20335;-90
2021/05/10 10:03:50;;;;;;;1.85;1.50;;;20.70;56.00;;;;;;4980117;28;20213;-89
2021/05/10 10:06:17;;;;;;;1.35;1.27;;;20.60;54.70;;;;;;4978688;28;20210;-88
2021/05/10 10:08:49;;;;;;;1.60;1.50;;;20.30;54.70;;;;;;4989699;28;20196;-89
2021/05/10 10:11:17;;;;;;;1.60;1.50;;;20.20;55.50;;;;;;4974377;28;20198;-89
2021/05/10 10:13:44;;;;;;;1.30;1.30;;;20.40;55.50;;;;;;4982719;28;20305;-89
2021/05/10 10:16:14;;;;;;;1.40;1.40;;;20.40;54.70;;;;;;4973695;28;20658;-91
2021/05/10 10:18:41;;;;;;;1.30;1.25;;;20.30;56.50;;;;;;4978275;28;20228;-91
2021/05/10 10:21:09;;;;;;;1.70;1.60;;;20.60;54.60;;;;;;4974826;28;20242;-91
2021/05/10 10:23:36;;;;;;;1.63;1.52;;;20.20;53.50;;;;;;4977527;28;20202;-90
2021/05/10 10:26:05;;;;;;;3.38;1.50;;;20.30;54.90;;;;;;4970285;28;20609;-90
2021/05/10 10:28:33;;;;;;;1.50;1.40;;;20.30;55.10;;;;;;4972893;28;20193;-91
2021/05/10 10:31:07;;;;;;;1.52;1.40;;;20.40;55.70;;;;;;4970794;28;20195;-89
2021/05/10 10:33:39;;;;;;;2.33;1.60;;;20.40;54.70;;;;;;4975932;28;20228;-89
2021/05/10 10:36:13;;;;;;;1.70;1.40;;;20.20;54.50;;;;;;4977746;28;20178;-90
2021/05/10 10:38:38;;;;;;;1.55;1.45;;;20.10;55.90;;;;;;4976918;28;20205;-90
2021/05/10 10:41:24;;;;;;;1.58;1.48;;;20.10;56.70;;;;;;4978286;28;20198;-91
2021/05/10 10:43:51;;;;;;;1.80;1.70;;;20.20;56.40;;;;;;4968251;28;20271;-91
2021/05/10 10:46:21;;;;;;;1.73;1.33;;;20.10;56.10;;;;;;4971060;28;20221;-90
2021/05/10 10:48:48;;;;;;;1.23;1.23;;;19.80;56.10;;;;;;4983458;28;20186;-90
2021/05/10 10:51:15;;;;;;;1.50;1.40;;;19.80;58.10;;;;;;4980867;28;20669;-91
2021/05/10 10:53:54;;;;;;;1.63;1.53;;;19.80;58.00;;;;;;4975653;28;20258;-90
2021/05/10 10:56:52;;;;;;;1.57;1.47;;;19.80;59.10;;;;;;4978845;28;20744;-90
2021/05/10 10:59:31;;;;;;;3.53;1.90;;;19.90;58.20;;;;;;4986334;28;20208;-90
2021/05/10 11:02:13;;;;;;;2.00;1.40;;;20.00;58.70;;;;;;5012152;28;20202;-91
2021/05/10 11:04:39;;;;;;;2.50;1.55;;;20.00;59.40;;;;;;4978642;28;20315;-91
2021/05/10 11:07:05;;;;;;;1.40;1.40;;;20.10;57.80;;;;;;4970875;28;20216;-90
2021/05/10 11:09:46;;;;;;;1.60;1.50;;;20.20;57.80;;;;;;4978624;28;20193;-91
2021/05/10 11:12:50;;;;;;;1.55;1.40;;;20.00;57.30;;;;;;4979069;28;20181;-91
2021/05/10 11:15:34;;;;;;;1.60;1.50;;;20.00;58.60;;;;;;4969144;28;20186;-90
2021/05/10 11:18:01;;;;;;;1.70;1.60;;;20.10;58.40;;;;;;4984191;28;20307;-90
2021/05/10 11:20:44;;;;;;;1.30;1.30;;;20.00;58.10;;;;;;4975408;28;20198;-90
2021/05/10 11:23:26;;;;;;;1.90;1.33;;;19.80;57.70;;;;;;4973412;28;20210;-91
2021/05/10 11:25:54;;;;;;;1.20;1.20;;;19.60;57.50;;;;;;4974378;28;20217;-91
2021/05/10 11:28:25;;;;;;;1.50;1.27;;;19.70;58.50;;;;;;4977862;28;20186;-91
2021/05/10 11:30:59;;;;;;;1.25;1.25;;;19.70;58.30;;;;;;4982190;28;20298;-91
2021/05/10 11:33:55;;;;;;;1.38;1.35;;;19.80;58.40;;;;;;4964856;28;20238;-91
2021/05/10 11:36:25;;;;;;;1.20;1.20;;;19.80;58.10;;;;;;4970883;28;20190;-91
2021/05/10 11:38:55;;;;;;;2.95;1.45;;;19.80;58.50;;;;;;4967220;28;20210;-90
2021/05/10 11:41:47;;;;;;;1.15;1.15;;;19.90;57.70;;;;;;4981479;28;20193;-90
2021/05/10 11:44:24;;;;;;;1.42;1.33;;;19.90;58.10;;;;;;4975096;28;20230;-90
2021/05/10 11:46:55;;;;;;;1.10;1.10;;;19.80;59.60;;;;;;4971842;28;20192;-91
2021/05/10 11:49:34;;;;;;;5.20;1.50;;;19.50;59.50;;;;;;4978141;28;20245;-90
2021/05/10 11:52:00;;;;;;;1.75;1.30;;;19.50;59.60;;;;;;4979709;28;20190;-90
2021/05/10 11:54:28;;;;;;;1.58;1.48;;;19.50;60.70;;;;;;4981765;28;20252;-90
2021/05/10 11:56:56;;;;;;;1.60;1.48;;;19.50;60.20;;;;;;4979579;28;20665;-90
2021/05/10 11:59:48;;;;;;;1.38;1.33;;;19.60;61.20;;;;;;4982879;28;20198;-90
2021/05/10 12:02:18;;;;;;;1.45;1.35;;;19.50;60.80;;;;;;4968895;28;20261;-91
2021/05/10 12:04:47;;;;;;;1.30;1.30;;;19.30;62.40;;;;;;4973857;28;20579;-91
2021/05/10 12:07:13;;;;;;;1.70;1.23;;;19.30;63.80;;;;;;4974439;28;20184;-91
2021/05/10 12:10:02;;;;;;;1.83;1.38;;;19.10;64.30;;;;;;4983397;28;20191;-91
2021/05/10 12:12:34;;;;;;;1.45;1.38;;;19.00;65.60;;;;;;4989780;28;20198;-91
2021/05/10 12:15:13;;;;;;;2.15;1.40;;;18.90;65.90;;;;;;4989122;28;20454;-89
2021/05/10 12:17:44;;;;;;;1.40;1.40;;;18.90;67.30;;;;;;4992882;28;20219;-88
2021/05/10 12:20:22;;;;;;;1.77;1.30;;;18.80;66.50;;;;;;4981093;28;20196;-88
2021/05/10 12:22:52;;;;;;;1.20;1.20;;;18.60;67.60;;;;;;4978819;28;20209;-89
2021/05/10 12:25:25;;;;;;;1.33;1.30;;;18.40;70.20;;;;;;4977733;28;20722;-89
2021/05/10 12:28:04;;;;;;;1.10;1.10;;;18.40;70.60;;;;;;4980524;28;20198;-88
2021/05/10 12:30:44;;;;;;;1.27;1.17;;;18.30;68.30;;;;;;4976976;28;20195;-88
2021/05/10 12:33:15;;;;;;;1.10;1.10;;;18.20;71.10;;;;;;4983524;28;20255;-89
2021/05/10 12:35:49;;;;;;;1.43;1.33;;;18.30;74.80;;;;;;4976302;28;20205;-91
2021/05/10 12:38:27;;;;;;;1.40;1.30;;;18.40;71.20;;;;;;4978603;28;20188;-88
2021/05/10 12:40:54;;;;;;;1.20;1.20;;;18.50;73.00;;;;;;4983450;28;20526;-88
2021/05/10 12:43:22;;;;;;;1.25;1.25;;;18.50;72.10;;;;;;4978515;28;20726;-89
2021/05/10 12:45:57;;;;;;;1.20;1.20;;;18.60;72.40;;;;;;4968554;28;20300;-89
2021/05/10 12:48:25;;;;;;;1.27;1.20;;;18.70;70.00;;;;;;4978253;28;20589;-89
2021/05/10 12:51:03;;;;;;;1.10;1.10;;;18.50;69.50;;;;;;4977686;28;20345;-85
2021/05/10 12:53:31;;;;;;;1.10;1.10;;;18.40;70.30;;;;;;4978747;28;20235;-84
2021/05/10 12:56:06;;;;;;;1.43;1.30;;;18.20;70.50;;;;;;4975615;28;20375;-85
2021/05/10 12:58:38;;;;;;;1.10;1.10;;;18.30;69.80;;;;;;4977281;28;20183;-85
2021/05/10 13:01:19;;;;;;;1.23;1.23;;;18.30;70.10;;;;;;4977258;28;20214;-90
2021/05/10 13:03:46;;;;;;;1.30;1.30;;;18.30;71.30;;;;;;4979300;28;20242;-89